sensor_id;sensor_type;location;lat;lon;timestamp;P1;durP1;ratioP1;P2;durP2;ratioP2
5483;SDS011;2764;48.794;8.326;2022-07-23T00:00:25;10.03;;;9.03;;
5483;SDS011;2764;48.794;8.326;2022-07-23T00:01:26;10.37;;;8.50;;
5483;SDS011;2764;48.794;8.326;2022-07-23T00:02:30;11.20;;;7.70;;
5483;SDS011;2764;48.794;8.326;2022-07-23T00:03:31;14.17;;;9.27;;
5483;SDS011;2764;48.794;8.326;2022-07-23T00:04:33;8.80;;;8.00;;
5483;SDS011;2764;48.794;8.326;2022-07-23T00:05:35;10.10;;;9.30;;
5483;SDS011;2764;48.794;8.326;2022-07-23T00:06:38;9.80;;;8.87;;
5483;SDS011;2764;48.794;8.326;2022-07-23T00:07:39;11.43;;;9.33;;
5483;SDS011;2764;48.794;8.326;2022-07-23T00:08:41;9.47;;;8.67;;
5483;SDS011;2764;48.794;8.326;2022-07-23T00:09:43;9.17;;;8.37;;
5483;SDS011;2764;48.794;8.326;2022-07-23T00:10:45;14.10;;;9.17;;
5483;SDS011;2764;48.794;8.326;2022-07-23T00:11:46;12.43;;;10.10;;
5483;SDS011;2764;48.794;8.326;2022-07-23T00:12:48;10.33;;;9.47;;
5483;SDS011;2764;48.794;8.326;2022-07-23T00:13:52;13.40;;;8.50;;
5483;SDS011;2764;48.794;8.326;2022-07-23T00:14:56;9.60;;;8.80;;
5483;SDS011;2764;48.794;8.326;2022-07-23T00:15:57;10.57;;;9.50;;
5483;SDS011;2764;48.794;8.326;2022-07-23T00:16:59;9.47;;;8.57;;
5483;SDS011;2764;48.794;8.326;2022-07-23T00:18:01;9.83;;;8.73;;
5483;SDS011;2764;48.794;8.326;2022-07-23T00:19:03;9.07;;;8.27;;
5483;SDS011;2764;48.794;8.326;2022-07-23T00:20:05;9.80;;;9.00;;
5483;SDS011;2764;48.794;8.326;2022-07-23T00:21:07;9.77;;;8.87;;
5483;SDS011;2764;48.794;8.326;2022-07-23T00:22:09;13.80;;;8.90;;
5483;SDS011;2764;48.794;8.326;2022-07-23T00:23:11;8.73;;;7.90;;
5483;SDS011;2764;48.794;8.326;2022-07-23T00:24:13;11.83;;;9.23;;
5483;SDS011;2764;48.794;8.326;2022-07-23T00:25:14;9.63;;;8.73;;
5483;SDS011;2764;48.794;8.326;2022-07-23T00:26:32;10.03;;;9.20;;
5483;SDS011;2764;48.794;8.326;2022-07-23T00:27:34;12.60;;;9.50;;
5483;SDS011;2764;48.794;8.326;2022-07-23T00:28:35;10.93;;;8.50;;
5483;SDS011;2764;48.794;8.326;2022-07-23T00:29:37;13.33;;;8.93;;
5483;SDS011;2764;48.794;8.326;2022-07-23T00:30:39;11.07;;;9.23;;
5483;SDS011;2764;48.794;8.326;2022-07-23T00:31:40;12.90;;;8.80;;
5483;SDS011;2764;48.794;8.326;2022-07-23T00:32:49;9.27;;;8.40;;
5483;SDS011;2764;48.794;8.326;2022-07-23T00:33:57;9.30;;;8.43;;
5483;SDS011;2764;48.794;8.326;2022-07-23T00:34:58;10.17;;;9.27;;
5483;SDS011;2764;48.794;8.326;2022-07-23T00:36:00;9.80;;;8.80;;
5483;SDS011;2764;48.794;8.326;2022-07-23T00:37:02;10.90;;;9.80;;
5483;SDS011;2764;48.794;8.326;2022-07-23T00:38:04;9.77;;;8.77;;
5483;SDS011;2764;48.794;8.326;2022-07-23T00:39:06;9.70;;;8.90;;
5483;SDS011;2764;48.794;8.326;2022-07-23T00:40:08;9.47;;;8.60;;
5483;SDS011;2764;48.794;8.326;2022-07-23T00:41:10;10.93;;;8.80;;
5483;SDS011;2764;48.794;8.326;2022-07-23T00:42:12;9.53;;;8.73;;
5483;SDS011;2764;48.794;8.326;2022-07-23T00:43:13;9.70;;;8.90;;
5483;SDS011;2764;48.794;8.326;2022-07-23T00:44:22;9.77;;;8.77;;
5483;SDS011;2764;48.794;8.326;2022-07-23T00:45:26;9.93;;;9.10;;
5483;SDS011;2764;48.794;8.326;2022-07-23T00:46:28;12.13;;;10.00;;
5483;SDS011;2764;48.794;8.326;2022-07-23T00:47:30;11.70;;;9.10;;
5483;SDS011;2764;48.794;8.326;2022-07-23T00:48:32;9.00;;;8.20;;
5483;SDS011;2764;48.794;8.326;2022-07-23T00:49:33;7.80;;;7.10;;
5483;SDS011;2764;48.794;8.326;2022-07-23T00:50:35;8.90;;;7.87;;
5483;SDS011;2764;48.794;8.326;2022-07-23T00:51:37;8.87;;;8.10;;
5483;SDS011;2764;48.794;8.326;2022-07-23T00:52:39;9.03;;;8.10;;
5483;SDS011;2764;48.794;8.326;2022-07-23T00:53:41;8.10;;;7.40;;
5483;SDS011;2764;48.794;8.326;2022-07-23T00:54:43;15.93;;;8.30;;
5483;SDS011;2764;48.794;8.326;2022-07-23T00:55:45;8.73;;;7.83;;
5483;SDS011;2764;48.794;8.326;2022-07-23T00:56:46;9.23;;;8.23;;
5483;SDS011;2764;48.794;8.326;2022-07-23T00:57:49;9.60;;;8.70;;
5483;SDS011;2764;48.794;8.326;2022-07-23T00:58:52;9.70;;;8.80;;
5483;SDS011;2764;48.794;8.326;2022-07-23T00:59:53;8.10;;;7.43;;
5483;SDS011;2764;48.794;8.326;2022-07-23T01:00:55;9.53;;;8.40;;
5483;SDS011;2764;48.794;8.326;2022-07-23T01:01:57;13.13;;;7.87;;
5483;SDS011;2764;48.794;8.326;2022-07-23T01:02:59;13.03;;;8.53;;
5483;SDS011;2764;48.794;8.326;2022-07-23T01:04:00;9.20;;;8.30;;
5483;SDS011;2764;48.794;8.326;2022-07-23T01:05:02;8.80;;;8.00;;
5483;SDS011;2764;48.794;8.326;2022-07-23T01:06:05;8.87;;;7.97;;
5483;SDS011;2764;48.794;8.326;2022-07-23T01:07:07;10.00;;;8.60;;
5483;SDS011;2764;48.794;8.326;2022-07-23T01:08:09;14.80;;;9.40;;
5483;SDS011;2764;48.794;8.326;2022-07-23T01:09:10;8.70;;;7.57;;
5483;SDS011;2764;48.794;8.326;2022-07-23T01:10:12;8.53;;;7.73;;
5483;SDS011;2764;48.794;8.326;2022-07-23T01:11:33;8.83;;;8.03;;
5483;SDS011;2764;48.794;8.326;2022-07-23T01:12:36;10.20;;;8.13;;
5483;SDS011;2764;48.794;8.326;2022-07-23T01:13:40;9.13;;;8.23;;
5483;SDS011;2764;48.794;8.326;2022-07-23T01:14:43;9.20;;;8.30;;
5483;SDS011;2764;48.794;8.326;2022-07-23T01:15:45;8.10;;;7.40;;
5483;SDS011;2764;48.794;8.326;2022-07-23T01:16:47;8.80;;;8.00;;
5483;SDS011;2764;48.794;8.326;2022-07-23T01:17:50;10.50;;;8.17;;
5483;SDS011;2764;48.794;8.326;2022-07-23T01:18:52;8.80;;;7.90;;
5483;SDS011;2764;48.794;8.326;2022-07-23T01:19:54;9.47;;;7.80;;
5483;SDS011;2764;48.794;8.326;2022-07-23T01:20:56;9.00;;;8.13;;
5483;SDS011;2764;48.794;8.326;2022-07-23T01:21:58;16.47;;;9.10;;
5483;SDS011;2764;48.794;8.326;2022-07-23T01:23:02;11.00;;;9.90;;
5483;SDS011;2764;48.794;8.326;2022-07-23T01:24:04;11.43;;;9.30;;
5483;SDS011;2764;48.794;8.326;2022-07-23T01:25:06;11.20;;;10.00;;
5483;SDS011;2764;48.794;8.326;2022-07-23T01:26:09;10.53;;;9.73;;
5483;SDS011;2764;48.794;8.326;2022-07-23T01:27:11;13.50;;;12.10;;
5483;SDS011;2764;48.794;8.326;2022-07-23T01:28:14;10.60;;;9.37;;
5483;SDS011;2764;48.794;8.326;2022-07-23T01:29:15;11.30;;;10.27;;
5483;SDS011;2764;48.794;8.326;2022-07-23T01:30:18;15.93;;;9.60;;
5483;SDS011;2764;48.794;8.326;2022-07-23T01:31:20;11.70;;;9.67;;
5483;SDS011;2764;48.794;8.326;2022-07-23T01:32:22;12.00;;;10.60;;
5483;SDS011;2764;48.794;8.326;2022-07-23T01:33:23;13.43;;;10.57;;
5483;SDS011;2764;48.794;8.326;2022-07-23T01:34:25;12.70;;;10.30;;
5483;SDS011;2764;48.794;8.326;2022-07-23T01:35:27;11.17;;;10.03;;
5483;SDS011;2764;48.794;8.326;2022-07-23T01:36:28;9.73;;;8.73;;
5483;SDS011;2764;48.794;8.326;2022-07-23T01:37:30;10.40;;;9.40;;
5483;SDS011;2764;48.794;8.326;2022-07-23T01:38:31;9.53;;;8.43;;
5483;SDS011;2764;48.794;8.326;2022-07-23T01:39:33;10.07;;;9.17;;
5483;SDS011;2764;48.794;8.326;2022-07-23T01:40:35;10.20;;;8.70;;
5483;SDS011;2764;48.794;8.326;2022-07-23T01:41:36;9.23;;;8.37;;
5483;SDS011;2764;48.794;8.326;2022-07-23T01:42:38;14.27;;;8.70;;
5483;SDS011;2764;48.794;8.326;2022-07-23T01:43:40;9.23;;;8.33;;
5483;SDS011;2764;48.794;8.326;2022-07-23T01:44:42;9.23;;;8.20;;
5483;SDS011;2764;48.794;8.326;2022-07-23T01:45:43;9.30;;;7.80;;
5483;SDS011;2764;48.794;8.326;2022-07-23T01:46:45;11.57;;;8.20;;
5483;SDS011;2764;48.794;8.326;2022-07-23T01:47:47;9.43;;;8.47;;
5483;SDS011;2764;48.794;8.326;2022-07-23T01:48:49;9.30;;;8.50;;
5483;SDS011;2764;48.794;8.326;2022-07-23T01:49:51;10.97;;;8.50;;
5483;SDS011;2764;48.794;8.326;2022-07-23T01:50:53;11.10;;;8.60;;
5483;SDS011;2764;48.794;8.326;2022-07-23T01:51:54;9.17;;;8.47;;
5483;SDS011;2764;48.794;8.326;2022-07-23T01:53:02;11.73;;;9.00;;
5483;SDS011;2764;48.794;8.326;2022-07-23T01:54:03;8.97;;;8.27;;
5483;SDS011;2764;48.794;8.326;2022-07-23T01:55:05;10.57;;;7.97;;
5483;SDS011;2764;48.794;8.326;2022-07-23T01:56:08;9.07;;;8.23;;
5483;SDS011;2764;48.794;8.326;2022-07-23T01:57:09;9.00;;;8.30;;
5483;SDS011;2764;48.794;8.326;2022-07-23T01:58:11;9.10;;;8.30;;
5483;SDS011;2764;48.794;8.326;2022-07-23T01:59:13;9.83;;;8.77;;
5483;SDS011;2764;48.794;8.326;2022-07-23T02:00:17;10.07;;;9.07;;
5483;SDS011;2764;48.794;8.326;2022-07-23T02:01:19;9.67;;;8.60;;
5483;SDS011;2764;48.794;8.326;2022-07-23T02:02:20;10.00;;;8.93;;
5483;SDS011;2764;48.794;8.326;2022-07-23T02:03:22;11.70;;;9.77;;
5483;SDS011;2764;48.794;8.326;2022-07-23T02:04:24;9.80;;;8.90;;
5483;SDS011;2764;48.794;8.326;2022-07-23T02:05:27;11.20;;;8.30;;
5483;SDS011;2764;48.794;8.326;2022-07-23T02:06:33;9.63;;;8.20;;
5483;SDS011;2764;48.794;8.326;2022-07-23T02:07:34;10.33;;;9.20;;
5483;SDS011;2764;48.794;8.326;2022-07-23T02:08:36;8.90;;;7.90;;
5483;SDS011;2764;48.794;8.326;2022-07-23T02:09:38;8.80;;;7.87;;
5483;SDS011;2764;48.794;8.326;2022-07-23T02:10:39;8.93;;;8.20;;
5483;SDS011;2764;48.794;8.326;2022-07-23T02:11:41;7.77;;;7.23;;
5483;SDS011;2764;48.794;8.326;2022-07-23T02:12:43;9.17;;;8.37;;
5483;SDS011;2764;48.794;8.326;2022-07-23T02:13:44;10.87;;;8.53;;
5483;SDS011;2764;48.794;8.326;2022-07-23T02:14:46;9.40;;;8.50;;
5483;SDS011;2764;48.794;8.326;2022-07-23T02:15:47;10.03;;;8.60;;
5483;SDS011;2764;48.794;8.326;2022-07-23T02:16:49;8.80;;;8.00;;
5483;SDS011;2764;48.794;8.326;2022-07-23T02:17:51;10.47;;;9.20;;
5483;SDS011;2764;48.794;8.326;2022-07-23T02:18:53;9.33;;;8.33;;
5483;SDS011;2764;48.794;8.326;2022-07-23T02:19:54;10.60;;;8.87;;
5483;SDS011;2764;48.794;8.326;2022-07-23T02:20:56;9.77;;;8.97;;
5483;SDS011;2764;48.794;8.326;2022-07-23T02:21:57;8.70;;;7.80;;
5483;SDS011;2764;48.794;8.326;2022-07-23T02:22:59;8.60;;;7.70;;
5483;SDS011;2764;48.794;8.326;2022-07-23T02:24:01;9.37;;;8.37;;
5483;SDS011;2764;48.794;8.326;2022-07-23T02:25:03;10.20;;;9.20;;
5483;SDS011;2764;48.794;8.326;2022-07-23T02:26:06;10.13;;;8.27;;
5483;SDS011;2764;48.794;8.326;2022-07-23T02:27:07;10.10;;;9.10;;
5483;SDS011;2764;48.794;8.326;2022-07-23T02:28:09;10.13;;;9.33;;
5483;SDS011;2764;48.794;8.326;2022-07-23T02:29:11;9.47;;;8.57;;
5483;SDS011;2764;48.794;8.326;2022-07-23T02:30:12;9.40;;;8.43;;
5483;SDS011;2764;48.794;8.326;2022-07-23T02:31:14;9.93;;;7.80;;
5483;SDS011;2764;48.794;8.326;2022-07-23T02:32:16;9.50;;;8.60;;
5483;SDS011;2764;48.794;8.326;2022-07-23T02:33:17;9.73;;;8.60;;
5483;SDS011;2764;48.794;8.326;2022-07-23T02:34:19;8.67;;;7.97;;
5483;SDS011;2764;48.794;8.326;2022-07-23T02:35:21;8.40;;;7.70;;
5483;SDS011;2764;48.794;8.326;2022-07-23T02:36:23;9.07;;;8.27;;
5483;SDS011;2764;48.794;8.326;2022-07-23T02:37:25;10.30;;;8.30;;
5483;SDS011;2764;48.794;8.326;2022-07-23T02:38:26;8.93;;;8.13;;
5483;SDS011;2764;48.794;8.326;2022-07-23T02:39:28;9.13;;;8.33;;
5483;SDS011;2764;48.794;8.326;2022-07-23T02:40:30;9.60;;;8.10;;
5483;SDS011;2764;48.794;8.326;2022-07-23T02:41:32;10.63;;;9.00;;
5483;SDS011;2764;48.794;8.326;2022-07-23T02:42:33;11.73;;;8.83;;
5483;SDS011;2764;48.794;8.326;2022-07-23T02:43:35;9.27;;;8.50;;
5483;SDS011;2764;48.794;8.326;2022-07-23T02:44:36;11.53;;;8.77;;
5483;SDS011;2764;48.794;8.326;2022-07-23T02:45:38;10.17;;;9.27;;
5483;SDS011;2764;48.794;8.326;2022-07-23T02:46:40;9.57;;;8.77;;
5483;SDS011;2764;48.794;8.326;2022-07-23T02:47:42;9.30;;;8.37;;
5483;SDS011;2764;48.794;8.326;2022-07-23T02:48:43;8.40;;;7.80;;
5483;SDS011;2764;48.794;8.326;2022-07-23T02:49:45;9.07;;;8.13;;
5483;SDS011;2764;48.794;8.326;2022-07-23T02:50:47;8.97;;;7.63;;
5483;SDS011;2764;48.794;8.326;2022-07-23T02:51:48;8.43;;;7.63;;
5483;SDS011;2764;48.794;8.326;2022-07-23T02:52:50;10.87;;;7.80;;
5483;SDS011;2764;48.794;8.326;2022-07-23T02:53:52;7.53;;;6.93;;
5483;SDS011;2764;48.794;8.326;2022-07-23T02:54:53;9.00;;;8.20;;
5483;SDS011;2764;48.794;8.326;2022-07-23T02:55:55;7.50;;;6.80;;
5483;SDS011;2764;48.794;8.326;2022-07-23T02:56:57;8.37;;;7.23;;
5483;SDS011;2764;48.794;8.326;2022-07-23T02:57:58;9.53;;;7.50;;
5483;SDS011;2764;48.794;8.326;2022-07-23T02:59:00;8.13;;;7.00;;
5483;SDS011;2764;48.794;8.326;2022-07-23T03:00:03;13.33;;;8.40;;
5483;SDS011;2764;48.794;8.326;2022-07-23T03:01:06;9.83;;;7.77;;
5483;SDS011;2764;48.794;8.326;2022-07-23T03:02:08;7.80;;;7.00;;
5483;SDS011;2764;48.794;8.326;2022-07-23T03:03:10;8.50;;;7.13;;
5483;SDS011;2764;48.794;8.326;2022-07-23T03:04:11;8.03;;;7.23;;
5483;SDS011;2764;48.794;8.326;2022-07-23T03:05:13;8.53;;;7.73;;
5483;SDS011;2764;48.794;8.326;2022-07-23T03:06:15;7.73;;;7.03;;
5483;SDS011;2764;48.794;8.326;2022-07-23T03:07:17;8.77;;;7.87;;
5483;SDS011;2764;48.794;8.326;2022-07-23T03:08:19;7.60;;;7.00;;
5483;SDS011;2764;48.794;8.326;2022-07-23T03:09:21;10.87;;;7.90;;
5483;SDS011;2764;48.794;8.326;2022-07-23T03:10:22;8.60;;;7.77;;
5483;SDS011;2764;48.794;8.326;2022-07-23T03:11:24;9.83;;;8.80;;
5483;SDS011;2764;48.794;8.326;2022-07-23T03:12:26;10.57;;;7.80;;
5483;SDS011;2764;48.794;8.326;2022-07-23T03:13:27;10.17;;;7.43;;
5483;SDS011;2764;48.794;8.326;2022-07-23T03:14:32;7.90;;;7.20;;
5483;SDS011;2764;48.794;8.326;2022-07-23T03:15:33;8.60;;;7.40;;
5483;SDS011;2764;48.794;8.326;2022-07-23T03:16:35;9.87;;;7.40;;
5483;SDS011;2764;48.794;8.326;2022-07-23T03:17:37;10.00;;;7.80;;
5483;SDS011;2764;48.794;8.326;2022-07-23T03:18:42;7.53;;;6.90;;
5483;SDS011;2764;48.794;8.326;2022-07-23T03:19:43;8.77;;;8.07;;
5483;SDS011;2764;48.794;8.326;2022-07-23T03:20:45;8.97;;;8.07;;
5483;SDS011;2764;48.794;8.326;2022-07-23T03:21:47;8.47;;;7.70;;
5483;SDS011;2764;48.794;8.326;2022-07-23T03:22:48;7.83;;;7.00;;
5483;SDS011;2764;48.794;8.326;2022-07-23T03:23:50;7.80;;;7.00;;
5483;SDS011;2764;48.794;8.326;2022-07-23T03:24:52;7.97;;;7.03;;
5483;SDS011;2764;48.794;8.326;2022-07-23T03:25:56;10.83;;;8.00;;
5483;SDS011;2764;48.794;8.326;2022-07-23T03:26:58;7.97;;;7.27;;
5483;SDS011;2764;48.794;8.326;2022-07-23T03:28:00;8.67;;;7.97;;
5483;SDS011;2764;48.794;8.326;2022-07-23T03:29:02;10.50;;;9.50;;
5483;SDS011;2764;48.794;8.326;2022-07-23T03:30:05;10.57;;;9.57;;
5483;SDS011;2764;48.794;8.326;2022-07-23T03:31:08;11.17;;;10.07;;
5483;SDS011;2764;48.794;8.326;2022-07-23T03:32:10;12.20;;;9.80;;
5483;SDS011;2764;48.794;8.326;2022-07-23T03:33:14;9.63;;;8.87;;
5483;SDS011;2764;48.794;8.326;2022-07-23T03:34:17;10.40;;;9.50;;
5483;SDS011;2764;48.794;8.326;2022-07-23T03:35:20;11.57;;;10.20;;
5483;SDS011;2764;48.794;8.326;2022-07-23T03:36:22;12.63;;;11.30;;
5483;SDS011;2764;48.794;8.326;2022-07-23T03:37:25;11.23;;;10.20;;
5483;SDS011;2764;48.794;8.326;2022-07-23T03:38:27;9.97;;;8.53;;
5483;SDS011;2764;48.794;8.326;2022-07-23T03:39:28;10.33;;;9.43;;
5483;SDS011;2764;48.794;8.326;2022-07-23T03:40:30;9.70;;;8.73;;
5483;SDS011;2764;48.794;8.326;2022-07-23T03:41:32;10.30;;;9.30;;
5483;SDS011;2764;48.794;8.326;2022-07-23T03:42:33;8.80;;;7.90;;
5483;SDS011;2764;48.794;8.326;2022-07-23T03:43:35;8.10;;;7.30;;
5483;SDS011;2764;48.794;8.326;2022-07-23T03:44:37;8.33;;;7.57;;
5483;SDS011;2764;48.794;8.326;2022-07-23T03:45:39;10.80;;;8.07;;
5483;SDS011;2764;48.794;8.326;2022-07-23T03:46:41;9.00;;;8.20;;
5483;SDS011;2764;48.794;8.326;2022-07-23T03:47:42;7.93;;;7.33;;
5483;SDS011;2764;48.794;8.326;2022-07-23T03:48:45;8.40;;;7.50;;
5483;SDS011;2764;48.794;8.326;2022-07-23T03:49:47;9.20;;;8.40;;
5483;SDS011;2764;48.794;8.326;2022-07-23T03:50:49;7.27;;;6.77;;
5483;SDS011;2764;48.794;8.326;2022-07-23T03:51:51;7.77;;;7.07;;
5483;SDS011;2764;48.794;8.326;2022-07-23T03:52:53;9.70;;;7.70;;
5483;SDS011;2764;48.794;8.326;2022-07-23T03:53:55;8.33;;;7.60;;
5483;SDS011;2764;48.794;8.326;2022-07-23T03:54:56;9.40;;;8.50;;
5483;SDS011;2764;48.794;8.326;2022-07-23T03:55:58;9.20;;;7.80;;
5483;SDS011;2764;48.794;8.326;2022-07-23T03:57:00;8.87;;;7.97;;
5483;SDS011;2764;48.794;8.326;2022-07-23T03:58:01;8.97;;;8.23;;
5483;SDS011;2764;48.794;8.326;2022-07-23T03:59:03;8.80;;;8.00;;
5483;SDS011;2764;48.794;8.326;2022-07-23T04:00:06;8.47;;;7.33;;
5483;SDS011;2764;48.794;8.326;2022-07-23T04:01:10;9.37;;;8.43;;
5483;SDS011;2764;48.794;8.326;2022-07-23T04:02:12;8.27;;;7.50;;
5483;SDS011;2764;48.794;8.326;2022-07-23T04:03:14;9.50;;;7.30;;
5483;SDS011;2764;48.794;8.326;2022-07-23T04:04:15;8.33;;;7.57;;
5483;SDS011;2764;48.794;8.326;2022-07-23T04:05:17;8.60;;;7.73;;
5483;SDS011;2764;48.794;8.326;2022-07-23T04:06:19;9.40;;;7.50;;
5483;SDS011;2764;48.794;8.326;2022-07-23T04:07:20;10.10;;;7.23;;
5483;SDS011;2764;48.794;8.326;2022-07-23T04:08:22;8.43;;;7.40;;
5483;SDS011;2764;48.794;8.326;2022-07-23T04:09:24;8.77;;;7.87;;
5483;SDS011;2764;48.794;8.326;2022-07-23T04:10:26;11.23;;;8.00;;
5483;SDS011;2764;48.794;8.326;2022-07-23T04:11:28;13.00;;;7.73;;
5483;SDS011;2764;48.794;8.326;2022-07-23T04:12:29;22.63;;;8.37;;
5483;SDS011;2764;48.794;8.326;2022-07-23T04:13:31;10.73;;;7.93;;
5483;SDS011;2764;48.794;8.326;2022-07-23T04:14:33;11.40;;;7.90;;
5483;SDS011;2764;48.794;8.326;2022-07-23T04:15:35;10.70;;;8.60;;
5483;SDS011;2764;48.794;8.326;2022-07-23T04:16:39;9.40;;;8.30;;
5483;SDS011;2764;48.794;8.326;2022-07-23T04:17:40;9.37;;;8.50;;
5483;SDS011;2764;48.794;8.326;2022-07-23T04:18:42;8.70;;;7.83;;
5483;SDS011;2764;48.794;8.326;2022-07-23T04:19:43;7.80;;;7.27;;
5483;SDS011;2764;48.794;8.326;2022-07-23T04:20:45;9.63;;;6.60;;
5483;SDS011;2764;48.794;8.326;2022-07-23T04:21:47;13.30;;;8.47;;
5483;SDS011;2764;48.794;8.326;2022-07-23T04:22:48;8.07;;;7.37;;
5483;SDS011;2764;48.794;8.326;2022-07-23T04:23:50;14.03;;;7.33;;
5483;SDS011;2764;48.794;8.326;2022-07-23T04:24:52;9.60;;;7.43;;
5483;SDS011;2764;48.794;8.326;2022-07-23T04:25:53;7.80;;;7.10;;
5483;SDS011;2764;48.794;8.326;2022-07-23T04:26:55;8.07;;;7.47;;
5483;SDS011;2764;48.794;8.326;2022-07-23T04:27:57;8.93;;;8.00;;
5483;SDS011;2764;48.794;8.326;2022-07-23T04:28:58;8.27;;;7.67;;
5483;SDS011;2764;48.794;8.326;2022-07-23T04:30:01;9.53;;;8.60;;
5483;SDS011;2764;48.794;8.326;2022-07-23T04:31:02;11.63;;;8.17;;
5483;SDS011;2764;48.794;8.326;2022-07-23T04:32:04;21.13;;;8.60;;
5483;SDS011;2764;48.794;8.326;2022-07-23T04:33:06;29.63;;;8.80;;
5483;SDS011;2764;48.794;8.326;2022-07-23T04:34:08;23.60;;;9.10;;
5483;SDS011;2764;48.794;8.326;2022-07-23T04:35:09;11.07;;;9.53;;
5483;SDS011;2764;48.794;8.326;2022-07-23T04:36:11;10.07;;;9.27;;
5483;SDS011;2764;48.794;8.326;2022-07-23T04:37:12;15.87;;;9.40;;
5483;SDS011;2764;48.794;8.326;2022-07-23T04:38:14;11.60;;;9.07;;
5483;SDS011;2764;48.794;8.326;2022-07-23T04:39:16;10.03;;;9.13;;
5483;SDS011;2764;48.794;8.326;2022-07-23T04:40:17;10.80;;;8.87;;
5483;SDS011;2764;48.794;8.326;2022-07-23T04:41:19;9.43;;;8.60;;
5483;SDS011;2764;48.794;8.326;2022-07-23T04:42:21;11.10;;;10.07;;
5483;SDS011;2764;48.794;8.326;2022-07-23T04:43:22;10.77;;;9.77;;
5483;SDS011;2764;48.794;8.326;2022-07-23T04:44:24;10.40;;;9.23;;
5483;SDS011;2764;48.794;8.326;2022-07-23T04:45:26;13.00;;;8.57;;
5483;SDS011;2764;48.794;8.326;2022-07-23T04:46:30;10.20;;;8.83;;
5483;SDS011;2764;48.794;8.326;2022-07-23T04:47:32;8.90;;;8.10;;
5483;SDS011;2764;48.794;8.326;2022-07-23T04:48:34;10.90;;;9.23;;
5483;SDS011;2764;48.794;8.326;2022-07-23T04:49:36;9.83;;;8.83;;
5483;SDS011;2764;48.794;8.326;2022-07-23T04:50:38;9.77;;;8.03;;
5483;SDS011;2764;48.794;8.326;2022-07-23T04:51:40;10.17;;;9.23;;
5483;SDS011;2764;48.794;8.326;2022-07-23T04:52:41;9.70;;;8.70;;
5483;SDS011;2764;48.794;8.326;2022-07-23T04:53:43;9.67;;;8.83;;
5483;SDS011;2764;48.794;8.326;2022-07-23T04:54:46;9.03;;;8.13;;
5483;SDS011;2764;48.794;8.326;2022-07-23T04:55:47;9.20;;;8.40;;
5483;SDS011;2764;48.794;8.326;2022-07-23T04:56:49;10.87;;;9.80;;
5483;SDS011;2764;48.794;8.326;2022-07-23T04:57:50;9.40;;;8.50;;
5483;SDS011;2764;48.794;8.326;2022-07-23T04:58:52;8.80;;;8.10;;
5483;SDS011;2764;48.794;8.326;2022-07-23T04:59:54;8.20;;;7.50;;
5483;SDS011;2764;48.794;8.326;2022-07-23T05:00:55;9.30;;;8.43;;
5483;SDS011;2764;48.794;8.326;2022-07-23T05:01:59;10.27;;;9.20;;
5483;SDS011;2764;48.794;8.326;2022-07-23T05:03:01;9.00;;;8.20;;
5483;SDS011;2764;48.794;8.326;2022-07-23T05:04:02;13.43;;;9.93;;
5483;SDS011;2764;48.794;8.326;2022-07-23T05:05:04;9.63;;;8.70;;
5483;SDS011;2764;48.794;8.326;2022-07-23T05:06:06;9.93;;;8.90;;
5483;SDS011;2764;48.794;8.326;2022-07-23T05:07:08;9.80;;;8.90;;
5483;SDS011;2764;48.794;8.326;2022-07-23T05:08:10;14.47;;;9.10;;
5483;SDS011;2764;48.794;8.326;2022-07-23T05:09:11;10.17;;;9.17;;
5483;SDS011;2764;48.794;8.326;2022-07-23T05:10:13;10.23;;;9.30;;
5483;SDS011;2764;48.794;8.326;2022-07-23T05:11:15;11.83;;;10.40;;
5483;SDS011;2764;48.794;8.326;2022-07-23T05:12:16;11.33;;;9.20;;
5483;SDS011;2764;48.794;8.326;2022-07-23T05:13:18;12.53;;;11.17;;
5483;SDS011;2764;48.794;8.326;2022-07-23T05:14:20;14.73;;;9.57;;
5483;SDS011;2764;48.794;8.326;2022-07-23T05:15:26;13.03;;;11.10;;
5483;SDS011;2764;48.794;8.326;2022-07-23T05:16:27;11.37;;;10.20;;
5483;SDS011;2764;48.794;8.326;2022-07-23T05:17:29;12.00;;;9.60;;
5483;SDS011;2764;48.794;8.326;2022-07-23T05:18:31;11.40;;;10.30;;
5483;SDS011;2764;48.794;8.326;2022-07-23T05:19:32;10.67;;;9.67;;
5483;SDS011;2764;48.794;8.326;2022-07-23T05:20:34;11.33;;;10.20;;
5483;SDS011;2764;48.794;8.326;2022-07-23T05:21:36;12.50;;;9.10;;
5483;SDS011;2764;48.794;8.326;2022-07-23T05:22:37;8.93;;;8.13;;
5483;SDS011;2764;48.794;8.326;2022-07-23T05:23:39;15.67;;;8.60;;
5483;SDS011;2764;48.794;8.326;2022-07-23T05:24:41;9.37;;;8.57;;
5483;SDS011;2764;48.794;8.326;2022-07-23T05:25:44;8.93;;;7.70;;
5483;SDS011;2764;48.794;8.326;2022-07-23T05:26:45;10.20;;;8.00;;
5483;SDS011;2764;48.794;8.326;2022-07-23T05:27:47;9.07;;;8.27;;
5483;SDS011;2764;48.794;8.326;2022-07-23T05:28:49;10.50;;;8.20;;
5483;SDS011;2764;48.794;8.326;2022-07-23T05:29:51;8.50;;;7.80;;
5483;SDS011;2764;48.794;8.326;2022-07-23T05:30:53;9.20;;;8.10;;
5483;SDS011;2764;48.794;8.326;2022-07-23T05:31:55;8.13;;;7.40;;
5483;SDS011;2764;48.794;8.326;2022-07-23T05:32:57;7.53;;;6.93;;
5483;SDS011;2764;48.794;8.326;2022-07-23T05:33:59;8.70;;;7.80;;
5483;SDS011;2764;48.794;8.326;2022-07-23T05:35:00;8.47;;;7.73;;
5483;SDS011;2764;48.794;8.326;2022-07-23T05:36:03;7.40;;;6.73;;
5483;SDS011;2764;48.794;8.326;2022-07-23T05:37:05;7.27;;;6.67;;
5483;SDS011;2764;48.794;8.326;2022-07-23T05:38:07;7.73;;;7.00;;
5483;SDS011;2764;48.794;8.326;2022-07-23T05:39:09;7.47;;;6.77;;
5483;SDS011;2764;48.794;8.326;2022-07-23T05:40:11;7.77;;;7.10;;
5483;SDS011;2764;48.794;8.326;2022-07-23T05:41:13;7.20;;;6.70;;
5483;SDS011;2764;48.794;8.326;2022-07-23T05:42:14;12.27;;;7.10;;
5483;SDS011;2764;48.794;8.326;2022-07-23T05:43:16;8.70;;;7.53;;
5483;SDS011;2764;48.794;8.326;2022-07-23T05:44:18;7.30;;;6.70;;
5483;SDS011;2764;48.794;8.326;2022-07-23T05:45:19;8.03;;;7.43;;
5483;SDS011;2764;48.794;8.326;2022-07-23T05:46:21;7.70;;;7.10;;
5483;SDS011;2764;48.794;8.326;2022-07-23T05:47:23;7.50;;;6.90;;
5483;SDS011;2764;48.794;8.326;2022-07-23T05:48:25;7.50;;;6.73;;
5483;SDS011;2764;48.794;8.326;2022-07-23T05:49:27;8.83;;;7.63;;
5483;SDS011;2764;48.794;8.326;2022-07-23T05:50:28;9.27;;;7.80;;
5483;SDS011;2764;48.794;8.326;2022-07-23T05:51:30;7.23;;;6.60;;
5483;SDS011;2764;48.794;8.326;2022-07-23T05:52:32;7.80;;;7.20;;
5483;SDS011;2764;48.794;8.326;2022-07-23T05:53:34;7.37;;;6.67;;
5483;SDS011;2764;48.794;8.326;2022-07-23T05:54:36;8.30;;;7.60;;
5483;SDS011;2764;48.794;8.326;2022-07-23T05:55:38;9.30;;;8.33;;
5483;SDS011;2764;48.794;8.326;2022-07-23T05:56:40;10.47;;;8.83;;
5483;SDS011;2764;48.794;8.326;2022-07-23T05:57:41;9.80;;;7.60;;
5483;SDS011;2764;48.794;8.326;2022-07-23T05:58:43;15.23;;;7.60;;
5483;SDS011;2764;48.794;8.326;2022-07-23T05:59:45;8.53;;;7.80;;
5483;SDS011;2764;48.794;8.326;2022-07-23T06:00:47;8.90;;;8.10;;
5483;SDS011;2764;48.794;8.326;2022-07-23T06:01:48;10.77;;;8.00;;
5483;SDS011;2764;48.794;8.326;2022-07-23T06:02:50;10.00;;;7.77;;
5483;SDS011;2764;48.794;8.326;2022-07-23T06:03:56;8.57;;;7.70;;
5483;SDS011;2764;48.794;8.326;2022-07-23T06:04:57;8.10;;;7.50;;
5483;SDS011;2764;48.794;8.326;2022-07-23T06:05:59;17.93;;;8.43;;
5483;SDS011;2764;48.794;8.326;2022-07-23T06:07:01;40.80;;;14.20;;
5483;SDS011;2764;48.794;8.326;2022-07-23T06:08:02;23.63;;;12.70;;
5483;SDS011;2764;48.794;8.326;2022-07-23T06:09:04;20.03;;;11.30;;
5483;SDS011;2764;48.794;8.326;2022-07-23T06:10:06;21.13;;;11.53;;
5483;SDS011;2764;48.794;8.326;2022-07-23T06:11:08;15.63;;;10.87;;
5483;SDS011;2764;48.794;8.326;2022-07-23T06:12:10;16.20;;;9.97;;
5483;SDS011;2764;48.794;8.326;2022-07-23T06:13:11;14.70;;;11.03;;
5483;SDS011;2764;48.794;8.326;2022-07-23T06:14:13;17.63;;;11.20;;
5483;SDS011;2764;48.794;8.326;2022-07-23T06:15:15;16.07;;;10.87;;
5483;SDS011;2764;48.794;8.326;2022-07-23T06:16:16;13.60;;;11.13;;
5483;SDS011;2764;48.794;8.326;2022-07-23T06:17:18;26.87;;;14.10;;
5483;SDS011;2764;48.794;8.326;2022-07-23T06:18:20;17.67;;;13.47;;
5483;SDS011;2764;48.794;8.326;2022-07-23T06:19:21;14.40;;;13.00;;
5483;SDS011;2764;48.794;8.326;2022-07-23T06:20:23;22.17;;;14.57;;
5483;SDS011;2764;48.794;8.326;2022-07-23T06:21:25;17.40;;;12.80;;
5483;SDS011;2764;48.794;8.326;2022-07-23T06:22:47;15.70;;;12.83;;